createdAt,value
2018-06-21T00:01:41.740Z,8.00
2018-06-21T00:04:10.469Z,7.53
2018-06-21T00:06:39.176Z,9.27
2018-06-21T00:09:08.985Z,10.70
2018-06-21T00:11:38.104Z,8.93
2018-06-21T00:14:06.773Z,7.73
2018-06-21T00:16:35.570Z,8.57
2018-06-21T00:19:03.865Z,7.63
2018-06-21T00:21:32.580Z,6.47
2018-06-21T00:24:01.318Z,10.40
2018-06-21T00:26:29.990Z,6.83
2018-06-21T00:28:58.668Z,8.17
2018-06-21T00:31:27.320Z,7.93
2018-06-21T00:33:55.966Z,7.40
2018-06-21T00:36:24.630Z,7.37
2018-06-21T00:38:53.330Z,6.73
2018-06-21T00:41:22.020Z,8.07
2018-06-21T00:43:50.704Z,8.07
2018-06-21T00:46:19.042Z,7.63
2018-06-21T00:48:47.994Z,8.67
2018-06-21T00:51:16.674Z,7.67
2018-06-21T00:53:45.352Z,7.47
2018-06-21T00:56:18.372Z,7.33
2018-06-21T00:58:47.843Z,7.77
2018-06-21T01:01:17.363Z,7.80
2018-06-21T01:03:46.429Z,7.43
2018-06-21T01:06:15.521Z,7.93
2018-06-21T01:08:44.350Z,8.60
2018-06-21T01:11:12.969Z,9.23
2018-06-21T01:13:41.660Z,9.80
2018-06-21T01:16:10.369Z,8.60
2018-06-21T01:18:39.184Z,9.83
2018-06-21T01:21:07.871Z,9.80
2018-06-21T01:23:36.164Z,8.80
2018-06-21T01:26:04.935Z,11.40
2018-06-21T01:28:33.631Z,9.27
2018-06-21T01:31:02.267Z,9.97
2018-06-21T01:33:30.958Z,11.10
2018-06-21T01:35:59.775Z,10.97
2018-06-21T01:38:28.452Z,12.10
2018-06-21T01:40:57.286Z,10.20
2018-06-21T01:43:25.960Z,11.30
2018-06-21T01:45:54.629Z,10.13
2018-06-21T01:48:23.482Z,10.93
2018-06-21T01:50:52.154Z,11.27
2018-06-21T01:53:20.460Z,11.03
2018-06-21T01:55:48.757Z,11.03
2018-06-21T01:58:17.050Z,10.73
2018-06-21T02:00:45.341Z,9.77
2018-06-21T02:03:14.108Z,11.37
2018-06-21T02:05:42.774Z,13.53
2018-06-21T02:08:11.491Z,12.77
2018-06-21T02:10:40.385Z,12.40
2018-06-21T02:13:09.065Z,13.10
2018-06-21T02:15:37.513Z,10.77
2018-06-21T02:18:06.222Z,10.80
2018-06-21T02:20:35.054Z,9.10
2018-06-21T02:23:03.905Z,14.67
2018-06-21T02:25:32.694Z,13.30
2018-06-21T02:28:01.450Z,14.77
2018-06-21T02:30:30.212Z,13.37
2018-06-21T02:32:59.077Z,14.00
2018-06-21T02:35:27.657Z,13.70
2018-06-21T02:37:56.407Z,11.97
2018-06-21T02:40:25.643Z,12.93
2018-06-21T02:42:54.502Z,14.10
2018-06-21T02:45:23.245Z,12.83
2018-06-21T02:47:51.967Z,12.10
2018-06-21T02:50:20.685Z,12.20
2018-06-21T02:52:49.375Z,9.63
2018-06-21T02:55:18.196Z,11.37
2018-06-21T02:57:46.904Z,10.17
2018-06-21T03:00:15.687Z,10.43
2018-06-21T03:02:44.421Z,14.10
2018-06-21T03:05:13.461Z,15.07
2018-06-21T03:07:42.341Z,8.70
2018-06-21T03:10:11.118Z,9.67
2018-06-21T03:12:39.962Z,9.90
2018-06-21T03:15:08.758Z,11.57
2018-06-21T03:17:37.499Z,8.80
2018-06-21T03:20:06.281Z,8.87
2018-06-21T03:22:34.896Z,9.70
2018-06-21T03:25:03.541Z,10.83
2018-06-21T03:27:32.132Z,10.00
2018-06-21T03:30:00.846Z,9.67
2018-06-21T03:32:29.915Z,10.47
2018-06-21T03:34:58.483Z,12.27
2018-06-21T03:37:26.739Z,14.90
2018-06-21T03:39:55.370Z,8.80
2018-06-21T03:42:23.703Z,9.33
2018-06-21T03:44:52.031Z,10.13
2018-06-21T03:47:20.741Z,10.63
2018-06-21T03:49:49.054Z,18.20
2018-06-21T03:52:17.866Z,18.40
2018-06-21T03:54:46.565Z,26.80
2018-06-21T03:57:15.316Z,13.93
2018-06-21T03:59:44.131Z,16.67
2018-06-21T04:02:12.431Z,15.97
2018-06-21T04:04:41.098Z,12.97
2018-06-21T04:07:09.779Z,12.97
2018-06-21T04:09:38.148Z,10.90
2018-06-21T04:12:06.444Z,12.33
2018-06-21T04:14:34.727Z,10.43
2018-06-21T04:17:03.390Z,9.40
2018-06-21T04:19:32.013Z,8.73
2018-06-21T04:22:00.318Z,9.67
2018-06-21T04:24:28.983Z,8.07
2018-06-21T04:26:57.639Z,13.60
2018-06-21T04:29:25.998Z,10.23
2018-06-21T04:31:54.293Z,13.07
2018-06-21T04:34:23.009Z,11.70
2018-06-21T04:36:51.663Z,12.23
2018-06-21T04:39:20.333Z,14.17
2018-06-21T04:41:48.968Z,11.97
2018-06-21T04:44:17.698Z,17.97
2018-06-21T04:46:46.393Z,12.43
2018-06-21T04:49:14.715Z,11.87
2018-06-21T04:51:43.135Z,15.07
2018-06-21T04:54:11.776Z,15.80
2018-06-21T04:56:40.492Z,10.67
2018-06-21T04:59:09.142Z,10.30
2018-06-21T05:01:37.968Z,13.87
2018-06-21T05:04:06.724Z,10.23
2018-06-21T05:06:35.047Z,14.53
2018-06-21T05:09:05.103Z,8.60
2018-06-21T05:11:33.785Z,8.73
2018-06-21T05:14:02.410Z,8.33
2018-06-21T05:16:31.054Z,9.30
2018-06-21T05:18:59.383Z,11.60
2018-06-21T05:21:28.080Z,14.40
2018-06-21T05:23:56.890Z,13.90
2018-06-21T05:26:25.633Z,14.43
2018-06-21T05:28:54.295Z,15.50
2018-06-21T05:31:22.608Z,13.63
2018-06-21T05:33:51.030Z,13.47
2018-06-21T05:36:19.268Z,19.57
2018-06-21T05:38:48.305Z,14.10
2018-06-21T05:41:16.960Z,15.87
2018-06-21T05:43:45.307Z,16.70
2018-06-21T05:46:13.976Z,24.53
2018-06-21T05:48:42.697Z,20.43
2018-06-21T05:51:11.398Z,18.87
2018-06-21T05:53:40.086Z,23.83
2018-06-21T05:56:08.724Z,27.43
2018-06-21T05:58:37.489Z,18.90
2018-06-21T06:01:05.951Z,20.93
2018-06-21T06:03:34.300Z,24.03
2018-06-21T06:06:03.018Z,25.33
2018-06-21T06:08:31.753Z,23.67
2018-06-21T06:11:00.102Z,19.13
2018-06-21T06:13:28.782Z,14.27
2018-06-21T06:15:57.495Z,11.97
2018-06-21T06:18:26.114Z,16.53
2018-06-21T06:20:54.434Z,16.67
2018-06-21T06:23:23.081Z,14.27
2018-06-21T06:25:52.298Z,12.07
2018-06-21T06:28:20.938Z,13.80
2018-06-21T06:30:49.611Z,8.40
2018-06-21T06:33:18.288Z,5.27
2018-06-21T06:35:46.987Z,3.57
2018-06-21T06:38:17.647Z,3.90
2018-06-21T06:40:45.912Z,3.93
2018-06-21T06:43:14.231Z,3.87
2018-06-21T06:45:42.978Z,4.67
2018-06-21T06:48:11.625Z,4.23
2018-06-21T06:50:40.285Z,5.00
2018-06-21T06:53:08.926Z,4.77
2018-06-21T06:55:37.572Z,3.90
2018-06-21T06:58:05.980Z,3.70
2018-06-21T07:00:34.605Z,2.60
2018-06-21T07:03:03.266Z,3.83
2018-06-21T07:05:31.554Z,3.37
2018-06-21T07:08:00.270Z,3.20
2018-06-21T07:10:28.966Z,5.27
2018-06-21T07:12:57.686Z,4.43
2018-06-21T07:15:26.344Z,7.97
2018-06-21T07:17:54.985Z,4.77
2018-06-21T07:20:23.683Z,4.30
2018-06-21T07:22:51.971Z,4.07
2018-06-21T07:25:20.745Z,4.33
2018-06-21T07:27:49.381Z,6.37
2018-06-21T07:30:18.022Z,5.17
2018-06-21T07:32:46.723Z,8.40
2018-06-21T07:35:15.376Z,5.87
2018-06-21T07:37:44.041Z,7.50
2018-06-21T07:40:12.730Z,7.13
2018-06-21T07:42:41.067Z,6.60
2018-06-21T07:45:09.744Z,6.17
2018-06-21T07:47:38.367Z,8.07
2018-06-21T07:50:06.957Z,6.13
2018-06-21T07:52:35.653Z,6.13
2018-06-21T07:55:04.412Z,7.90
2018-06-21T07:57:33.105Z,6.77
2018-06-21T08:00:01.455Z,7.53
2018-06-21T08:02:29.774Z,7.03
2018-06-21T08:04:58.506Z,8.97
2018-06-21T08:07:27.152Z,7.10
2018-06-21T08:10:01.612Z,7.87
2018-06-21T08:12:30.291Z,6.37
2018-06-21T08:14:58.602Z,8.20
2018-06-21T08:17:27.423Z,4.60
2018-06-21T08:19:56.129Z,4.93
2018-06-21T08:22:24.959Z,5.90
2018-06-21T08:24:53.294Z,5.07
2018-06-21T08:27:21.616Z,5.20
2018-06-21T08:29:49.985Z,4.90
2018-06-21T08:32:18.714Z,4.83
2018-06-21T08:34:47.103Z,7.17
2018-06-21T08:37:15.832Z,6.80
2018-06-21T08:39:44.593Z,8.60
2018-06-21T08:42:13.100Z,6.63
2018-06-21T08:44:41.439Z,8.53
2018-06-21T08:47:09.821Z,6.30
2018-06-21T08:49:38.306Z,7.00
2018-06-21T08:52:07.101Z,6.57
2018-06-21T08:54:35.499Z,6.20
2018-06-21T08:57:04.268Z,6.17
2018-06-21T08:59:32.746Z,8.77
2018-06-21T09:02:01.573Z,6.70
2018-06-21T09:04:29.918Z,3.77
2018-06-21T09:06:59.889Z,6.43
2018-06-21T09:09:29.444Z,8.23
2018-06-21T09:11:58.479Z,6.77
2018-06-21T09:14:27.656Z,5.90
2018-06-21T09:16:57.101Z,5.30
2018-06-21T09:19:26.319Z,7.33
2018-06-21T09:21:54.602Z,4.10
2018-06-21T09:24:24.057Z,8.23
2018-06-21T09:26:53.049Z,4.73
2018-06-21T09:29:21.963Z,6.23
2018-06-21T09:31:50.304Z,5.77
2018-06-21T09:34:19.590Z,6.40
2018-06-21T09:36:48.226Z,9.57
2018-06-21T09:39:23.908Z,4.73
2018-06-21T09:42:01.001Z,3.47
2018-06-21T09:44:32.617Z,6.80
2018-06-21T09:47:06.433Z,9.60
2018-06-21T09:49:35.538Z,9.07
2018-06-21T09:52:06.795Z,5.53
2018-06-21T09:54:35.444Z,9.70
2018-06-21T09:57:04.307Z,7.73
2018-06-21T09:59:33.662Z,4.30
2018-06-21T10:02:03.597Z,3.40
2018-06-21T10:04:32.508Z,5.23
2018-06-21T10:07:01.430Z,3.77
2018-06-21T10:09:30.115Z,4.93
2018-06-21T10:11:58.829Z,4.50
2018-06-21T10:14:27.163Z,4.70
2018-06-21T10:16:55.902Z,5.50
2018-06-21T10:19:27.770Z,4.20
2018-06-21T10:21:56.532Z,4.47
2018-06-21T10:24:24.888Z,7.70
2018-06-21T10:26:53.310Z,4.13
2018-06-21T10:29:22.777Z,2.30
2018-06-21T10:31:51.597Z,4.63
2018-06-21T10:34:20.369Z,7.20
2018-06-21T10:36:49.036Z,5.80
2018-06-21T10:39:17.676Z,4.53
2018-06-21T10:41:46.329Z,5.07
2018-06-21T10:44:15.115Z,3.53
2018-06-21T10:46:44.405Z,3.63
2018-06-21T10:49:16.460Z,6.43
2018-06-21T10:51:46.159Z,4.73
2018-06-21T10:54:14.793Z,4.47
2018-06-21T10:56:43.975Z,5.83
2018-06-21T10:59:13.487Z,7.97
2018-06-21T11:01:42.761Z,5.50
2018-06-21T11:04:12.322Z,5.27
2018-06-21T11:06:40.997Z,6.43
2018-06-21T11:09:09.977Z,3.97
2018-06-21T11:11:38.414Z,4.70
2018-06-21T11:14:07.095Z,5.80
2018-06-21T11:16:35.836Z,6.30
2018-06-21T11:19:04.717Z,7.43
2018-06-21T11:21:33.634Z,6.13
2018-06-21T11:24:03.148Z,6.00
2018-06-21T11:26:31.933Z,3.73
2018-06-21T11:29:00.308Z,8.23
2018-06-21T11:31:28.967Z,9.13
2018-06-21T11:33:57.753Z,4.93
2018-06-21T11:36:26.438Z,7.87
2018-06-21T11:38:55.103Z,3.97
2018-06-21T11:41:23.393Z,7.23
2018-06-21T11:43:51.876Z,4.23
2018-06-21T11:46:20.328Z,11.17
2018-06-21T11:48:48.645Z,4.80
2018-06-21T11:51:16.991Z,7.63
2018-06-21T11:53:45.401Z,4.60
2018-06-21T11:56:14.111Z,5.63
2018-06-21T11:58:42.608Z,3.63
2018-06-21T12:01:11.404Z,3.57
2018-06-21T12:03:39.731Z,3.33
2018-06-21T12:06:08.482Z,6.43
2018-06-21T12:08:37.531Z,6.83
2018-06-21T12:11:06.541Z,4.97
2018-06-21T12:13:36.011Z,4.73
2018-06-21T12:16:04.827Z,6.90
2018-06-21T12:18:33.653Z,3.50
2018-06-21T12:21:02.405Z,4.50
2018-06-21T12:23:30.881Z,3.53
2018-06-21T12:25:59.660Z,3.53
2018-06-21T12:28:29.370Z,5.57
2018-06-21T12:30:58.027Z,6.53
2018-06-21T12:33:26.398Z,1.63
2018-06-21T12:35:54.812Z,10.33
2018-06-21T12:38:23.124Z,5.33
2018-06-21T12:40:51.454Z,1.70
2018-06-21T12:43:20.048Z,5.03
2018-06-21T12:45:48.598Z,3.80
2018-06-21T12:48:16.956Z,1.77
2018-06-21T12:50:45.289Z,4.47
2018-06-21T12:53:14.021Z,7.33
2018-06-21T12:55:42.363Z,5.70
2018-06-21T12:58:10.711Z,5.13
2018-06-21T13:00:39.423Z,4.83
2018-06-21T13:03:08.121Z,9.77
2018-06-21T13:05:37.126Z,5.77
2018-06-21T13:08:06.379Z,4.37
2018-06-21T13:10:46.220Z,3.37
2018-06-21T13:13:16.565Z,4.17
2018-06-21T13:15:45.704Z,4.77
2018-06-21T13:18:14.492Z,4.53
2018-06-21T13:20:43.331Z,3.87
2018-06-21T13:23:12.297Z,4.20
2018-06-21T13:25:40.623Z,4.63
2018-06-21T13:28:10.539Z,8.63
2018-06-21T13:30:40.295Z,4.23
2018-06-21T13:33:08.613Z,8.33
2018-06-21T13:35:37.353Z,5.00
2018-06-21T13:38:06.097Z,8.13
2018-06-21T13:40:35.454Z,5.90
2018-06-21T13:43:04.210Z,3.87
2018-06-21T13:45:33.001Z,3.83
2018-06-21T13:48:01.656Z,5.67
2018-06-21T13:50:29.937Z,4.63
2018-06-21T13:52:58.676Z,3.67
2018-06-21T13:55:27.467Z,7.80
2018-06-21T13:57:56.288Z,3.23
2018-06-21T14:00:25.277Z,4.53
2018-06-21T14:02:53.825Z,3.60
2018-06-21T14:05:22.177Z,7.63
2018-06-21T14:07:50.980Z,5.10
2018-06-21T14:10:19.270Z,3.77
2018-06-21T14:12:47.794Z,6.03
2018-06-21T14:15:16.121Z,5.00
2018-06-21T14:17:44.872Z,7.07
2018-06-21T14:20:13.522Z,6.33
2018-06-21T14:22:42.087Z,5.30
2018-06-21T14:25:10.408Z,1.97
2018-06-21T14:27:38.781Z,5.77
2018-06-21T14:30:07.104Z,5.37
2018-06-21T14:32:35.496Z,3.00
2018-06-21T14:35:04.182Z,5.63
2018-06-21T14:37:32.878Z,4.33
2018-06-21T14:40:01.258Z,2.50
2018-06-21T14:42:29.712Z,7.27
2018-06-21T14:44:59.197Z,8.77
2018-06-21T14:47:27.997Z,2.57
2018-06-21T14:49:56.308Z,4.33
2018-06-21T14:52:24.664Z,4.93
2018-06-21T14:54:53.500Z,4.53
2018-06-21T14:57:22.369Z,2.93
2018-06-21T14:59:51.014Z,2.50
2018-06-21T15:02:22.643Z,1.97
2018-06-21T15:04:51.306Z,3.23
2018-06-21T15:07:21.877Z,2.80
2018-06-21T15:09:51.848Z,1.80
2018-06-21T15:12:22.559Z,2.70
2018-06-21T15:14:52.785Z,2.63
2018-06-21T15:17:26.716Z,1.07
2018-06-21T15:19:55.173Z,1.27
2018-06-21T15:22:23.943Z,1.43
2018-06-21T15:24:52.331Z,2.93
2018-06-21T15:27:20.820Z,4.03
2018-06-21T15:30:02.104Z,1.83
2018-06-21T15:32:31.242Z,1.13
2018-06-21T15:35:00.630Z,1.10
2018-06-21T15:37:29.394Z,0.97
2018-06-21T15:39:58.720Z,1.17
2018-06-21T15:42:27.549Z,3.17
2018-06-21T15:44:56.250Z,0.70
2018-06-21T15:47:25.137Z,0.83
2018-06-21T15:49:53.498Z,2.83
2018-06-21T15:52:22.158Z,1.63
2018-06-21T15:54:50.807Z,0.70
2018-06-21T15:57:19.278Z,0.93
2018-06-21T15:59:47.655Z,1.70
2018-06-21T16:02:16.006Z,2.43
2018-06-21T16:04:44.800Z,1.17
2018-06-21T16:07:13.122Z,1.80
2018-06-21T16:09:41.514Z,0.43
2018-06-21T16:12:10.040Z,2.10
2018-06-21T16:14:38.826Z,4.07
2018-06-21T16:17:07.515Z,0.90
2018-06-21T16:19:36.193Z,1.03
2018-06-21T16:22:04.624Z,3.03
2018-06-21T16:24:33.299Z,0.90
2018-06-21T16:27:02.060Z,0.97
2018-06-21T16:29:31.336Z,1.60
2018-06-21T16:31:59.999Z,1.30
2018-06-21T16:34:28.391Z,2.00
2018-06-21T16:36:57.045Z,1.50
2018-06-21T16:42:08.387Z,2.67
2018-06-21T16:44:37.091Z,4.00
2018-06-21T16:47:05.511Z,1.93
2018-06-21T16:49:34.457Z,1.70
2018-06-21T16:52:03.273Z,2.00
2018-06-21T16:54:39.111Z,2.10
2018-06-21T16:57:07.851Z,5.27
2018-06-21T16:59:36.526Z,2.07
2018-06-21T17:02:05.184Z,3.53
2018-06-21T17:04:33.505Z,4.63
2018-06-21T17:07:04.473Z,1.50
2018-06-21T17:09:33.513Z,2.40
2018-06-21T17:12:02.185Z,4.00
2018-06-21T17:14:30.928Z,1.93
2018-06-21T17:16:59.301Z,2.13
2018-06-21T17:19:27.615Z,4.07
2018-06-21T17:21:56.380Z,1.37
2018-06-21T17:24:25.057Z,2.70
2018-06-21T17:26:53.729Z,1.77
2018-06-21T17:29:26.727Z,2.47
2018-06-21T17:31:57.185Z,2.07
2018-06-21T17:34:26.896Z,6.37
2018-06-21T17:36:55.677Z,4.37
2018-06-21T17:39:24.420Z,2.63
2018-06-21T17:41:52.850Z,2.10
2018-06-21T17:44:21.578Z,2.03
2018-06-21T17:46:50.617Z,1.03
2018-06-21T17:49:18.963Z,3.70
2018-06-21T17:51:47.704Z,2.87
2018-06-21T17:54:16.484Z,4.03
2018-06-21T17:56:44.850Z,2.40
2018-06-21T17:59:13.315Z,4.63
2018-06-21T18:01:46.298Z,3.70
2018-06-21T18:04:16.209Z,1.67
2018-06-21T18:06:44.712Z,2.83
2018-06-21T18:09:16.829Z,8.13
2018-06-21T18:11:45.288Z,3.03
2018-06-21T18:14:13.978Z,2.77
2018-06-21T18:16:42.631Z,2.97
2018-06-21T18:19:13.138Z,5.60
2018-06-21T18:21:41.839Z,6.50
2018-06-21T18:24:10.306Z,6.77
2018-06-21T18:26:40.010Z,2.83
2018-06-21T18:29:08.442Z,2.30
2018-06-21T18:31:40.610Z,0.70
2018-06-21T18:34:11.643Z,3.27
2018-06-21T18:36:42.536Z,2.30
2018-06-21T18:39:12.297Z,5.47
2018-06-21T18:41:42.880Z,4.20
2018-06-21T18:44:11.511Z,4.03
2018-06-21T18:46:41.448Z,3.23
2018-06-21T18:49:09.889Z,2.93
2018-06-21T18:51:38.766Z,3.43
2018-06-21T18:54:07.792Z,2.50
2018-06-21T18:56:36.634Z,2.73
2018-06-21T18:59:04.952Z,3.03
2018-06-21T19:01:33.310Z,3.93
2018-06-21T19:04:02.042Z,3.80
2018-06-21T19:06:35.911Z,4.53
2018-06-21T19:09:12.309Z,3.40
2018-06-21T19:11:50.337Z,2.10
2018-06-21T19:14:20.504Z,4.07
2018-06-21T19:16:49.532Z,4.73
2018-06-21T19:19:18.958Z,13.10
2018-06-21T19:21:52.903Z,1.60
2018-06-21T19:24:23.239Z,3.77
2018-06-21T19:26:54.521Z,14.67
2018-06-21T19:29:23.175Z,2.30
2018-06-21T19:31:53.162Z,4.17
2018-06-21T19:34:21.584Z,2.20
2018-06-21T19:36:50.013Z,3.10
2018-06-21T19:39:26.223Z,1.97
2018-06-21T19:42:07.884Z,3.00
2018-06-21T19:44:41.052Z,2.23
2018-06-21T19:47:09.833Z,0.97
2018-06-21T19:49:40.087Z,1.33
2018-06-21T19:52:09.756Z,4.03
2018-06-21T19:54:43.484Z,5.07
2018-06-21T19:57:11.802Z,3.33
2018-06-21T19:59:40.104Z,5.40
2018-06-21T20:02:08.392Z,2.10
2018-06-21T20:04:36.699Z,5.87
2018-06-21T20:07:05.001Z,2.60
2018-06-21T20:09:33.769Z,4.87
2018-06-21T20:12:03.052Z,3.15
2018-06-21T20:14:38.065Z,3.97
2018-06-21T20:17:07.004Z,3.10
2018-06-21T20:19:43.013Z,3.13
2018-06-21T20:22:16.082Z,3.23
2018-06-21T20:24:44.503Z,4.50
2018-06-21T20:27:12.849Z,3.43
2018-06-21T20:29:54.176Z,7.77
2018-06-21T20:32:23.381Z,1.20
2018-06-21T20:34:51.962Z,4.13
2018-06-21T20:37:20.292Z,3.23
2018-06-21T20:39:48.613Z,6.73
2018-06-21T20:42:18.488Z,6.83
2018-06-21T20:44:46.857Z,2.13
2018-06-21T20:47:15.158Z,2.80
2018-06-21T20:49:43.548Z,3.80
2018-06-21T20:52:17.333Z,3.37
2018-06-21T20:54:45.685Z,7.10
2018-06-21T20:57:14.320Z,5.83
2018-06-21T20:59:43.505Z,4.27
2018-06-21T21:02:12.821Z,7.33
2018-06-21T21:05:18.354Z,9.70
2018-06-21T21:07:50.419Z,2.77
2018-06-21T21:10:19.340Z,5.07
2018-06-21T21:12:47.742Z,7.23
2018-06-21T21:15:17.021Z,4.77
2018-06-21T21:17:45.492Z,6.00
2018-06-21T21:20:13.941Z,4.60
2018-06-21T21:22:42.814Z,3.17
2018-06-21T21:25:11.537Z,4.13
2018-06-21T21:27:40.057Z,4.80
2018-06-21T21:30:08.916Z,4.77
2018-06-21T21:32:37.331Z,4.23
2018-06-21T21:35:05.791Z,6.43
2018-06-21T21:37:35.603Z,6.10
2018-06-21T21:40:06.380Z,5.77
2018-06-21T21:42:35.985Z,6.43
2018-06-21T21:45:04.449Z,6.77
2018-06-21T21:47:33.173Z,8.30
2018-06-21T21:50:01.989Z,5.20
2018-06-21T21:52:30.755Z,3.20
2018-06-21T21:54:59.597Z,4.87
2018-06-21T21:57:28.177Z,5.87
2018-06-21T21:59:56.934Z,5.30
2018-06-21T22:02:25.381Z,8.70
2018-06-21T22:04:53.705Z,4.97
2018-06-21T22:07:22.772Z,7.57
2018-06-21T22:09:51.176Z,7.80
2018-06-21T22:12:20.883Z,7.27
2018-06-21T22:14:52.319Z,7.60
2018-06-21T22:17:20.588Z,8.70
2018-06-21T22:19:48.920Z,7.20
2018-06-21T22:22:17.564Z,5.17
2018-06-21T22:24:45.897Z,3.43
2018-06-21T22:27:14.208Z,11.33
2018-06-21T22:29:44.483Z,5.53
2018-06-21T22:32:15.831Z,6.77
2018-06-21T22:34:46.581Z,9.10
2018-06-21T22:37:15.580Z,8.87
2018-06-21T22:39:44.830Z,8.73
2018-06-21T22:42:13.986Z,10.07
2018-06-21T22:44:42.760Z,9.47
2018-06-21T22:47:11.405Z,7.43
2018-06-21T22:49:41.272Z,8.27
2018-06-21T22:52:09.602Z,8.73
2018-06-21T22:54:39.855Z,8.33
2018-06-21T22:57:08.985Z,6.77
2018-06-21T22:59:37.692Z,9.57
2018-06-21T23:02:06.386Z,8.67
2018-06-21T23:04:35.319Z,8.53
2018-06-21T23:07:03.764Z,10.07
2018-06-21T23:09:39.990Z,7.97
2018-06-21T23:12:09.750Z,6.90
2018-06-21T23:14:38.126Z,5.13
2018-06-21T23:17:08.121Z,10.03
2018-06-21T23:19:36.527Z,11.50
2018-06-21T23:22:04.866Z,9.07
2018-06-21T23:24:33.574Z,10.87
2018-06-21T23:27:01.993Z,8.33
2018-06-21T23:29:31.052Z,8.67
2018-06-21T23:32:01.710Z,8.63
2018-06-21T23:34:30.503Z,6.20
2018-06-21T23:36:58.915Z,4.60
2018-06-21T23:39:27.338Z,6.53
2018-06-21T23:41:56.327Z,5.07
2018-06-21T23:44:25.757Z,9.70
2018-06-21T23:46:54.703Z,9.83
2018-06-21T23:49:23.090Z,10.63
2018-06-21T23:51:51.927Z,6.50
2018-06-21T23:54:21.658Z,2.87
2018-06-21T23:56:50.337Z,4.53
2018-06-21T23:59:18.731Z,6.43
